Laguepe — 9HAI9 — position and weather

sailwx.info

Track history (hours):
 
Tides and Currents Weather Stations Pressure Air Temp Water Temp Dewpoint Dewpoint Depression Visibility Wind Speed Wind Dir Waves Ship Positions

Laguepe

Last reported at 2015-Jul-06 15:04 UTC. Time now 2015-Jul-06 20:04 UTC.
Position N 44°18' E 008°31'.

Length 81 m; draft 3.2 m.

Type: Cargo ship. MMSI: 256681000.

Date/timePositionNaut miles runAvg speedWind from/ knotsBaromVisibWave heightAir tempDewpointWater temp
2015-Jul-06 15:04N 44°18' E 008°31'1 0.2
2015-Jul-06 10:30N 44°19' E 008°30'0 0.0
2015-Jul-06 08:33N 44°19' E 008°30'0 0.0
2015-Jul-06 07:33N 44°19' E 008°30'3 0.8
2015-Jul-06 03:33N 44°16' E 008°31'6 6.4
2015-Jul-06 02:33N 44°09' E 008°29'7 7.3
2015-Jul-06 01:34N 44°03' E 008°24'8 7.2
2015-Jul-06 00:26N 43°56' E 008°19'9 7.0
2015-Jul-05 23:12N 43°49' E 008°12'5 7.0
2015-Jul-05 22:27N 43°46' E 008°06'6 7.0
2015-Jul-05 21:33N 43°42' E 007°59'7 7.0
2015-Jul-05 20:32N 43°38' E 007°51'7 6.9
2015-Jul-05 19:33N 43°34' E 007°43'1 0.9
2015-Jul-05 18:13N 43°34' E 007°42'0 0.2
2015-Jul-05 17:33N 43°34' E 007°42'0 0.1
2015-Jul-05 16:33N 43°34' E 007°42'4 3.5
2015-Jul-05 15:33N 43°32' E 007°38'6 5.7
2015-Jul-05 14:33N 43°29' E 007°32'6 5.7
2015-Jul-05 13:33N 43°25' E 007°25'6 5.7
2015-Jul-05 12:34N 43°22' E 007°19'6 5.6
2015-Jul-05 11:33N 43°19' E 007°12'5 5.3
2015-Jul-05 10:33N 43°16' E 007°06'5 5.3
2015-Jul-05 09:33N 43°13' E 007°00'6 5.8
2015-Jul-05 08:33N 43°10' E 006°54'5 5.2
2015-Jul-05 07:34N 43°07' E 006°48'5 5.4
2015-Jul-05 06:33N 43°04' E 006°42'5 5.3
2015-Jul-05 05:33N 43°01' E 006°36'5 5.5
2015-Jul-05 04:33N 42°57' E 006°30'6 6.0
2015-Jul-05 03:33N 42°57' E 006°22'21 6.3
2015-Jul-05 00:15N 42°59' E 005°53'6 6.7
2015-Jul-04 23:21N 43°01' E 005°46'6 6.7
2015-Jul-04 22:27N 43°03' E 005°38'6 6.5
2015-Jul-04 21:33N 43°05' E 005°31'7 6.5
2015-Jul-04 20:33N 43°07' E 005°22'6 6.4
2015-Jul-04 19:33N 43°09' E 005°14'6 6.3
2015-Jul-04 18:34N 43°13' E 005°07'8 7.7
2015-Jul-04 17:34N 43°19' E 004°59'7 7.1
2015-Jul-04 16:33N 43°23' E 004°52'3 0.7
2015-Jul-04 12:25N 43°23' E 004°48'0 0.0
2015-Jul-04 11:31N 43°23' E 004°48'0 0.0
2015-Jul-04 10:31N 43°23' E 004°48'0 0.0
2015-Jul-04 09:25N 43°23' E 004°48'0 0.0
2015-Jul-04 08:31N 43°23' E 004°48'0 0.0
2015-Jul-04 07:31N 43°23' E 004°48'0 0.0
2015-Jul-04 06:28N 43°23' E 004°48'0 0.1
2015-Jul-04 05:33N 43°23' E 004°48'0 0.0
2015-Jul-04 04:15N 43°23' E 004°48'0 0.0
2015-Jul-04 03:12N 43°23' E 004°48'0 0.0
2015-Jul-04 02:30N 43°23' E 004°48'0 0.0
2015-Jul-04 01:30N 43°23' E 004°48'0 0.0
2015-Jul-04 00:30N 43°23' E 004°48'0 0.0
2015-Jul-03 23:21N 43°23' E 004°48'0 0.0
2015-Jul-03 20:21N 43°23' E 004°48'0 0.0
2015-Jul-03 19:33N 43°23' E 004°48'0 0.0
2015-Jul-03 18:30N 43°23' E 004°48'0 0.0
2015-Jul-03 17:27N 43°23' E 004°48'0 0.0
2015-Jul-03 16:33N 43°23' E 004°48'0 0.0
2015-Jul-03 15:24N 43°23' E 004°48'0 0.0
2015-Jul-03 14:33N 43°23' E 004°48'1 0.6
2015-Jul-03 13:34N 43°23' E 004°48'8 8.0
2015-Jul-03 12:33N 43°31' E 004°44'9 8.4
2015-Jul-03 11:33N 43°38' E 004°37'  
2015-Jun-30 16:33N 43°28' E 004°45'5 5.3
2015-Jun-30 15:32N 43°23' E 004°49'4 3.7
2015-Jun-30 14:33N 43°24' E 004°53'8 7.7
2015-Jun-30 13:33N 43°18' E 005°01'9 8.5
2015-Jun-30 12:32N 43°12' E 005°09'8 8.4
2015-Jun-30 11:32N 43°08' E 005°19'8 8.3
2015-Jun-30 10:33N 43°05' E 005°30'8 8.5
2015-Jun-30 09:33N 43°03' E 005°41'9 8.7
2015-Jun-30 08:33N 43°01' E 005°53'9 8.7
2015-Jun-30 07:33N 42°57' E 006°03'12 8.9
2015-Jun-30 06:10N 42°57' E 006°20'76 8.8
2015-Jun-29 21:33N 43°37' E 007°48'10 8.7
2015-Jun-29 20:25N 43°42' E 007°60'8 8.7
2015-Jun-29 19:32N 43°47' E 008°08'8 8.3
2015-Jun-29 18:33N 43°53' E 008°16'8 8.2
2015-Jun-29 17:33N 43°60' E 008°22'8 7.9
2015-Jun-29 16:33N 44°07' E 008°27'8 8.0
2015-Jun-29 15:33N 44°14' E 008°31'5 2.2
2015-Jun-29 13:26N 44°19' E 008°30'0 0.0
2015-Jun-29 11:32N 44°19' E 008°30'0 0.0
2015-Jun-29 09:32N 44°19' E 008°30'0 0.0
2015-Jun-29 08:32N 44°19' E 008°30'0 0.0
2015-Jun-29 06:08N 44°19' E 008°30'0 0.0
2015-Jun-29 05:24N 44°19' E 008°30'0 0.0
2015-Jun-29 04:33N 44°19' E 008°30'3 2.8
2015-Jun-29 03:32N 44°16' E 008°31'5 5.2
2015-Jun-29 02:32N 44°11' E 008°31'18 6.2
2015-Jun-28 23:33N 43°55' E 008°18'6 6.1
2015-Jun-28 22:33N 43°50' E 008°14'6 6.1
2015-Jun-28 21:33N 43°46' E 008°07'6 6.0
2015-Jun-28 20:33N 43°43' E 007°60'6 6.0
2015-Jun-28 19:32N 43°39' E 007°53'8 6.2
2015-Jun-28 18:12N 43°35' E 007°44'4 6.0
2015-Jun-28 17:32N 43°32' E 007°39'6 6.1
2015-Jun-28 16:33N 43°29' E 007°32'5 4.8
2015-Jun-28 15:33N 43°26' E 007°27'6 6.3
2015-Jun-28 14:33N 43°23' E 007°20'51 6.2
2015-Jun-28 06:13N 42°57' E 006°19'5 6.3
2015-Jun-28 05:23N 42°57' E 006°12'47 6.8
2015-Jun-27 22:32N 43°11' E 005°11'8 8.0
2015-Jun-27 21:33N 43°16' E 005°03'8 8.1
2015-Jun-27 20:33N 43°23' E 004°56'6 5.8
2015-Jun-27 19:33N 43°23' E 004°49'0 0.1
2015-Jun-27 18:31N 43°23' E 004°48'0 0.0
2015-Jun-27 17:31N 43°23' E 004°48'0 0.0
2015-Jun-27 16:31N 43°23' E 004°48'0 0.0
2015-Jun-27 15:31N 43°23' E 004°48'0 0.0
2015-Jun-27 14:31N 43°23' E 004°48'0 0.0
2015-Jun-27 13:31N 43°23' E 004°48'0 0.0
2015-Jun-27 12:31N 43°23' E 004°48'0 0.0
2015-Jun-27 11:31N 43°23' E 004°48'0 0.0
2015-Jun-27 10:28N 43°23' E 004°48'0 0.0
2015-Jun-27 09:31N 43°23' E 004°48'0 0.0
2015-Jun-27 08:31N 43°23' E 004°48'0 0.0
2015-Jun-27 07:28N 43°23' E 004°48'0 0.0
2015-Jun-27 03:31N 43°23' E 004°48'0 0.0
2015-Jun-27 02:31N 43°23' E 004°48'0 0.0
2015-Jun-27 01:22N 43°23' E 004°48'0 0.0
2015-Jun-27 00:31N 43°23' E 004°48'0 0.0
2015-Jun-26 23:31N 43°23' E 004°48'0 0.0
2015-Jun-26 22:31N 43°23' E 004°48'0 0.0
2015-Jun-26 21:28N 43°23' E 004°48'0 0.0
2015-Jun-26 20:31N 43°23' E 004°48'0 0.0
2015-Jun-26 18:28N 43°23' E 004°48'0 0.0
2015-Jun-26 17:28N 43°23' E 004°48'0 0.0
2015-Jun-26 16:22N 43°23' E 004°48'0 0.0
2015-Jun-26 15:31N 43°23' E 004°48'  
Track history (hours):
 
Tides and Currents Weather Stations Pressure Air Temp Water Temp Dewpoint Dewpoint Depression Visibility Wind Speed Wind Dir Waves Ship Positions

Laguepe

Last reported at 2015-Jul-06 15:04 UTC. Time now 2015-Jul-06 20:04 UTC.
Position N 44°18' E 008°31'.

Length 81 m; draft 3.2 m.

Type: Cargo ship. MMSI: 256681000.

Date/timePositionNaut miles runAvg speedWind from/ knotsBaromVisibWave heightAir tempDewpointWater temp
2015-Jul-06 15:04N 44°18' E 008°31'1 0.2
2015-Jul-06 10:30N 44°19' E 008°30'0 0.0
2015-Jul-06 08:33N 44°19' E 008°30'0 0.0
2015-Jul-06 07:33N 44°19' E 008°30'3 0.8
2015-Jul-06 03:33N 44°16' E 008°31'6 6.4
2015-Jul-06 02:33N 44°09' E 008°29'7 7.3
2015-Jul-06 01:34N 44°03' E 008°24'8 7.2
2015-Jul-06 00:26N 43°56' E 008°19'9 7.0
2015-Jul-05 23:12N 43°49' E 008°12'5 7.0
2015-Jul-05 22:27N 43°46' E 008°06'6 7.0
2015-Jul-05 21:33N 43°42' E 007°59'7 7.0
2015-Jul-05 20:32N 43°38' E 007°51'7 6.9
2015-Jul-05 19:33N 43°34' E 007°43'1 0.9
2015-Jul-05 18:13N 43°34' E 007°42'0 0.2
2015-Jul-05 17:33N 43°34' E 007°42'0 0.1
2015-Jul-05 16:33N 43°34' E 007°42'4 3.5
2015-Jul-05 15:33N 43°32' E 007°38'6 5.7
2015-Jul-05 14:33N 43°29' E 007°32'6 5.7
2015-Jul-05 13:33N 43°25' E 007°25'6 5.7
2015-Jul-05 12:34N 43°22' E 007°19'6 5.6
2015-Jul-05 11:33N 43°19' E 007°12'5 5.3
2015-Jul-05 10:33N 43°16' E 007°06'5 5.3
2015-Jul-05 09:33N 43°13' E 007°00'6 5.8
2015-Jul-05 08:33N 43°10' E 006°54'5 5.2
2015-Jul-05 07:34N 43°07' E 006°48'5 5.4
2015-Jul-05 06:33N 43°04' E 006°42'5 5.3
2015-Jul-05 05:33N 43°01' E 006°36'5 5.5
2015-Jul-05 04:33N 42°57' E 006°30'6 6.0
2015-Jul-05 03:33N 42°57' E 006°22'21 6.3
2015-Jul-05 00:15N 42°59' E 005°53'6 6.7
2015-Jul-04 23:21N 43°01' E 005°46'6 6.7
2015-Jul-04 22:27N 43°03' E 005°38'6 6.5
2015-Jul-04 21:33N 43°05' E 005°31'7 6.5
2015-Jul-04 20:33N 43°07' E 005°22'6 6.4
2015-Jul-04 19:33N 43°09' E 005°14'6 6.3
2015-Jul-04 18:34N 43°13' E 005°07'8 7.7
2015-Jul-04 17:34N 43°19' E 004°59'7 7.1
2015-Jul-04 16:33N 43°23' E 004°52'3 0.7
2015-Jul-04 12:25N 43°23' E 004°48'0 0.0
2015-Jul-04 11:31N 43°23' E 004°48'0 0.0
2015-Jul-04 10:31N 43°23' E 004°48'0 0.0
2015-Jul-04 09:25N 43°23' E 004°48'0 0.0
2015-Jul-04 08:31N 43°23' E 004°48'0 0.0
2015-Jul-04 07:31N 43°23' E 004°48'0 0.0
2015-Jul-04 06:28N 43°23' E 004°48'0 0.1
2015-Jul-04 05:33N 43°23' E 004°48'0 0.0
2015-Jul-04 04:15N 43°23' E 004°48'0 0.0
2015-Jul-04 03:12N 43°23' E 004°48'0 0.0
2015-Jul-04 02:30N 43°23' E 004°48'0 0.0
2015-Jul-04 01:30N 43°23' E 004°48'0 0.0
2015-Jul-04 00:30N 43°23' E 004°48'0 0.0
2015-Jul-03 23:21N 43°23' E 004°48'0 0.0
2015-Jul-03 20:21N 43°23' E 004°48'0 0.0
2015-Jul-03 19:33N 43°23' E 004°48'0 0.0
2015-Jul-03 18:30N 43°23' E 004°48'0 0.0
2015-Jul-03 17:27N 43°23' E 004°48'0 0.0
2015-Jul-03 16:33N 43°23' E 004°48'0 0.0
2015-Jul-03 15:24N 43°23' E 004°48'0 0.0
2015-Jul-03 14:33N 43°23' E 004°48'1 0.6
2015-Jul-03 13:34N 43°23' E 004°48'8 8.0
2015-Jul-03 12:33N 43°31' E 004°44'9 8.4
2015-Jul-03 11:33N 43°38' E 004°37'  
2015-Jun-30 16:33N 43°28' E 004°45'5 5.3
2015-Jun-30 15:32N 43°23' E 004°49'4 3.7
2015-Jun-30 14:33N 43°24' E 004°53'8 7.7
2015-Jun-30 13:33N 43°18' E 005°01'9 8.5
2015-Jun-30 12:32N 43°12' E 005°09'8 8.4
2015-Jun-30 11:32N 43°08' E 005°19'8 8.3
2015-Jun-30 10:33N 43°05' E 005°30'8 8.5
2015-Jun-30 09:33N 43°03' E 005°41'9 8.7
2015-Jun-30 08:33N 43°01' E 005°53'9 8.7
2015-Jun-30 07:33N 42°57' E 006°03'12 8.9
2015-Jun-30 06:10N 42°57' E 006°20'76 8.8
2015-Jun-29 21:33N 43°37' E 007°48'10 8.7
2015-Jun-29 20:25N 43°42' E 007°60'8 8.7
2015-Jun-29 19:32N 43°47' E 008°08'8 8.3
2015-Jun-29 18:33N 43°53' E 008°16'8 8.2
2015-Jun-29 17:33N 43°60' E 008°22'8 7.9
2015-Jun-29 16:33N 44°07' E 008°27'8 8.0
2015-Jun-29 15:33N 44°14' E 008°31'5 2.2
2015-Jun-29 13:26N 44°19' E 008°30'0 0.0
2015-Jun-29 11:32N 44°19' E 008°30'0 0.0
2015-Jun-29 09:32N 44°19' E 008°30'0 0.0
2015-Jun-29 08:32N 44°19' E 008°30'0 0.0
2015-Jun-29 06:08N 44°19' E 008°30'0 0.0
2015-Jun-29 05:24N 44°19' E 008°30'0 0.0
2015-Jun-29 04:33N 44°19' E 008°30'3 2.8
2015-Jun-29 03:32N 44°16' E 008°31'5 5.2
2015-Jun-29 02:32N 44°11' E 008°31'18 6.2
2015-Jun-28 23:33N 43°55' E 008°18'6 6.1
2015-Jun-28 22:33N 43°50' E 008°14'6 6.1
2015-Jun-28 21:33N 43°46' E 008°07'6 6.0
2015-Jun-28 20:33N 43°43' E 007°60'6 6.0
2015-Jun-28 19:32N 43°39' E 007°53'8 6.2
2015-Jun-28 18:12N 43°35' E 007°44'4 6.0
2015-Jun-28 17:32N 43°32' E 007°39'6 6.1
2015-Jun-28 16:33N 43°29' E 007°32'5 4.8
2015-Jun-28 15:33N 43°26' E 007°27'6 6.3
2015-Jun-28 14:33N 43°23' E 007°20'51 6.2
2015-Jun-28 06:13N 42°57' E 006°19'5 6.3
2015-Jun-28 05:23N 42°57' E 006°12'47 6.8
2015-Jun-27 22:32N 43°11' E 005°11'8 8.0
2015-Jun-27 21:33N 43°16' E 005°03'8 8.1
2015-Jun-27 20:33N 43°23' E 004°56'6 5.8
2015-Jun-27 19:33N 43°23' E 004°49'0 0.1
2015-Jun-27 18:31N 43°23' E 004°48'0 0.0
2015-Jun-27 17:31N 43°23' E 004°48'0 0.0
2015-Jun-27 16:31N 43°23' E 004°48'0 0.0
2015-Jun-27 15:31N 43°23' E 004°48'0 0.0
2015-Jun-27 14:31N 43°23' E 004°48'0 0.0
2015-Jun-27 13:31N 43°23' E 004°48'0 0.0
2015-Jun-27 12:31N 43°23' E 004°48'0 0.0
2015-Jun-27 11:31N 43°23' E 004°48'0 0.0
2015-Jun-27 10:28N 43°23' E 004°48'0 0.0
2015-Jun-27 09:31N 43°23' E 004°48'0 0.0
2015-Jun-27 08:31N 43°23' E 004°48'0 0.0
2015-Jun-27 07:28N 43°23' E 004°48'0 0.0
2015-Jun-27 03:31N 43°23' E 004°48'0 0.0
2015-Jun-27 02:31N 43°23' E 004°48'0 0.0
2015-Jun-27 01:22N 43°23' E 004°48'0 0.0
2015-Jun-27 00:31N 43°23' E 004°48'0 0.0
2015-Jun-26 23:31N 43°23' E 004°48'0 0.0
2015-Jun-26 22:31N 43°23' E 004°48'0 0.0
2015-Jun-26 21:28N 43°23' E 004°48'0 0.0
2015-Jun-26 20:31N 43°23' E 004°48'0 0.0
2015-Jun-26 18:28N 43°23' E 004°48'0 0.0
2015-Jun-26 17:28N 43°23' E 004°48'0 0.0
2015-Jun-26 16:22N 43°23' E 004°48'0 0.0
2015-Jun-26 15:31N 43°23' E 004°48'  

Dump ship's entire track history